sensor_id;sensor_type;location;lat;lon;timestamp;temperature;humidity
56308;DHT22;42217;50.422;7.210;2023-03-21T00:02:07;7.90;99.90
56308;DHT22;42217;50.422;7.210;2023-03-21T00:04:33;7.90;99.90
56308;DHT22;42217;50.422;7.210;2023-03-21T00:06:59;7.80;99.90
56308;DHT22;42217;50.422;7.210;2023-03-21T00:09:24;7.70;99.90
56308;DHT22;42217;50.422;7.210;2023-03-21T00:11:50;7.60;99.90
56308;DHT22;42217;50.422;7.210;2023-03-21T00:14:16;7.50;99.90
56308;DHT22;42217;50.422;7.210;2023-03-21T00:16:46;7.50;99.90
56308;DHT22;42217;50.422;7.210;2023-03-21T00:19:16;7.50;99.90
56308;DHT22;42217;50.422;7.210;2023-03-21T00:21:42;7.50;99.90
56308;DHT22;42217;50.422;7.210;2023-03-21T00:24:08;7.50;99.90
56308;DHT22;42217;50.422;7.210;2023-03-21T00:26:34;7.50;99.90
56308;DHT22;42217;50.422;7.210;2023-03-21T00:29:00;7.60;99.90
56308;DHT22;42217;50.422;7.210;2023-03-21T00:31:26;7.50;99.90
56308;DHT22;42217;50.422;7.210;2023-03-21T00:33:52;7.80;99.90
56308;DHT22;42217;50.422;7.210;2023-03-21T00:36:18;7.90;99.90
56308;DHT22;42217;50.422;7.210;2023-03-21T00:41:19;7.80;99.90
56308;DHT22;42217;50.422;7.210;2023-03-21T00:43:45;7.70;99.90
56308;DHT22;42217;50.422;7.210;2023-03-21T00:46:11;7.70;99.90
56308;DHT22;42217;50.422;7.210;2023-03-21T00:48:36;7.60;99.90
56308;DHT22;42217;50.422;7.210;2023-03-21T00:51:11;7.60;99.90
56308;DHT22;42217;50.422;7.210;2023-03-21T00:53:37;7.60;99.90
56308;DHT22;42217;50.422;7.210;2023-03-21T00:56:03;7.60;99.90
56308;DHT22;42217;50.422;7.210;2023-03-21T00:58:29;7.60;99.90
56308;DHT22;42217;50.422;7.210;2023-03-21T01:00:55;7.70;99.90
56308;DHT22;42217;50.422;7.210;2023-03-21T01:03:21;7.70;99.90
56308;DHT22;42217;50.422;7.210;2023-03-21T01:05:51;7.70;99.90
56308;DHT22;42217;50.422;7.210;2023-03-21T01:08:41;7.80;99.90
56308;DHT22;42217;50.422;7.210;2023-03-21T01:11:10;7.90;99.90
56308;DHT22;42217;50.422;7.210;2023-03-21T01:13:36;7.80;99.90
56308;DHT22;42217;50.422;7.210;2023-03-21T01:16:03;7.70;99.90
56308;DHT22;42217;50.422;7.210;2023-03-21T01:18:30;7.70;99.90
56308;DHT22;42217;50.422;7.210;2023-03-21T01:20:58;7.70;99.90
56308;DHT22;42217;50.422;7.210;2023-03-21T01:23:26;7.70;99.90
56308;DHT22;42217;50.422;7.210;2023-03-21T01:25:53;7.70;99.90
56308;DHT22;42217;50.422;7.210;2023-03-21T01:28:19;7.60;99.90
56308;DHT22;42217;50.422;7.210;2023-03-21T01:30:46;7.50;99.90
56308;DHT22;42217;50.422;7.210;2023-03-21T01:33:13;7.60;99.90
56308;DHT22;42217;50.422;7.210;2023-03-21T01:35:39;7.60;99.90
56308;DHT22;42217;50.422;7.210;2023-03-21T01:38:04;7.50;99.90
56308;DHT22;42217;50.422;7.210;2023-03-21T01:40:30;7.50;99.90
56308;DHT22;42217;50.422;7.210;2023-03-21T01:42:56;7.60;99.90
56308;DHT22;42217;50.422;7.210;2023-03-21T01:48:26;7.60;99.90
56308;DHT22;42217;50.422;7.210;2023-03-21T01:50:52;7.50;99.90
56308;DHT22;42217;50.422;7.210;2023-03-21T01:53:24;7.40;99.90
56308;DHT22;42217;50.422;7.210;2023-03-21T01:56:00;7.40;99.90
56308;DHT22;42217;50.422;7.210;2023-03-21T01:58:27;7.40;99.90
56308;DHT22;42217;50.422;7.210;2023-03-21T02:00:54;7.30;99.90
56308;DHT22;42217;50.422;7.210;2023-03-21T02:03:21;7.20;99.90
56308;DHT22;42217;50.422;7.210;2023-03-21T02:08:20;7.10;99.90
56308;DHT22;42217;50.422;7.210;2023-03-21T02:10:47;7.10;99.90
56308;DHT22;42217;50.422;7.210;2023-03-21T02:13:13;7.00;99.90
56308;DHT22;42217;50.422;7.210;2023-03-21T02:15:58;7.00;99.90
56308;DHT22;42217;50.422;7.210;2023-03-21T02:37:33;7.40;99.90
56308;DHT22;42217;50.422;7.210;2023-03-21T02:40:08;7.30;99.90
56308;DHT22;42217;50.422;7.210;2023-03-21T02:43:06;7.20;99.90
56308;DHT22;42217;50.422;7.210;2023-03-21T02:45:39;7.20;99.90
56308;DHT22;42217;50.422;7.210;2023-03-21T02:48:12;7.20;99.90
56308;DHT22;42217;50.422;7.210;2023-03-21T02:50:44;7.10;99.90
56308;DHT22;42217;50.422;7.210;2023-03-21T02:53:14;7.00;99.90
56308;DHT22;42217;50.422;7.210;2023-03-21T02:55:41;7.00;99.90
56308;DHT22;42217;50.422;7.210;2023-03-21T02:58:10;6.90;99.90
56308;DHT22;42217;50.422;7.210;2023-03-21T03:00:37;6.70;99.90
56308;DHT22;42217;50.422;7.210;2023-03-21T03:03:03;6.50;99.90
56308;DHT22;42217;50.422;7.210;2023-03-21T03:05:34;6.40;99.90
56308;DHT22;42217;50.422;7.210;2023-03-21T03:08:05;6.20;99.90
56308;DHT22;42217;50.422;7.210;2023-03-21T03:26:28;6.60;99.90
56308;DHT22;42217;50.422;7.210;2023-03-21T03:29:00;6.50;99.90
56308;DHT22;42217;50.422;7.210;2023-03-21T03:31:36;6.40;99.90
56308;DHT22;42217;50.422;7.210;2023-03-21T03:34:07;6.30;99.90
56308;DHT22;42217;50.422;7.210;2023-03-21T03:36:38;6.20;99.90
56308;DHT22;42217;50.422;7.210;2023-03-21T03:39:08;6.20;99.90
56308;DHT22;42217;50.422;7.210;2023-03-21T03:44:13;6.40;99.90
56308;DHT22;42217;50.422;7.210;2023-03-21T03:46:46;6.40;99.90
56308;DHT22;42217;50.422;7.210;2023-03-21T03:49:19;6.40;99.90
56308;DHT22;42217;50.422;7.210;2023-03-21T03:52:11;6.30;99.90
56308;DHT22;42217;50.422;7.210;2023-03-21T03:54:46;6.20;99.90
56308;DHT22;42217;50.422;7.210;2023-03-21T03:57:13;6.10;99.90
56308;DHT22;42217;50.422;7.210;2023-03-21T04:03:08;6.00;99.90
56308;DHT22;42217;50.422;7.210;2023-03-21T04:05:34;5.90;99.90
56308;DHT22;42217;50.422;7.210;2023-03-21T04:08:01;6.00;99.90
56308;DHT22;42217;50.422;7.210;2023-03-21T04:10:26;6.00;99.90
56308;DHT22;42217;50.422;7.210;2023-03-21T04:12:52;6.10;99.90
56308;DHT22;42217;50.422;7.210;2023-03-21T04:15:18;6.10;99.90
56308;DHT22;42217;50.422;7.210;2023-03-21T04:17:45;6.20;99.90
56308;DHT22;42217;50.422;7.210;2023-03-21T04:20:12;6.40;99.90
56308;DHT22;42217;50.422;7.210;2023-03-21T04:22:38;6.60;99.90
56308;DHT22;42217;50.422;7.210;2023-03-21T04:25:05;6.70;99.90
56308;DHT22;42217;50.422;7.210;2023-03-21T04:27:31;6.80;99.90
56308;DHT22;42217;50.422;7.210;2023-03-21T04:29:58;6.90;99.90
56308;DHT22;42217;50.422;7.210;2023-03-21T04:32:24;6.90;99.90
56308;DHT22;42217;50.422;7.210;2023-03-21T04:34:51;7.00;99.90
56308;DHT22;42217;50.422;7.210;2023-03-21T04:37:22;7.00;99.90
56308;DHT22;42217;50.422;7.210;2023-03-21T04:39:50;7.00;99.90
56308;DHT22;42217;50.422;7.210;2023-03-21T04:42:17;7.00;99.90
56308;DHT22;42217;50.422;7.210;2023-03-21T04:44:46;7.00;99.90
56308;DHT22;42217;50.422;7.210;2023-03-21T04:47:13;7.00;99.90
56308;DHT22;42217;50.422;7.210;2023-03-21T04:49:41;7.00;99.90
56308;DHT22;42217;50.422;7.210;2023-03-21T04:52:10;7.00;99.90
56308;DHT22;42217;50.422;7.210;2023-03-21T04:54:36;7.00;99.90
56308;DHT22;42217;50.422;7.210;2023-03-21T04:57:02;7.10;99.90
56308;DHT22;42217;50.422;7.210;2023-03-21T04:59:29;7.10;99.90
56308;DHT22;42217;50.422;7.210;2023-03-21T05:01:55;7.20;99.90
56308;DHT22;42217;50.422;7.210;2023-03-21T05:04:25;7.10;99.90
56308;DHT22;42217;50.422;7.210;2023-03-21T05:06:52;7.10;99.90
56308;DHT22;42217;50.422;7.210;2023-03-21T05:09:21;7.20;99.90
56308;DHT22;42217;50.422;7.210;2023-03-21T05:11:47;7.20;99.90
56308;DHT22;42217;50.422;7.210;2023-03-21T05:14:16;7.10;99.90
56308;DHT22;42217;50.422;7.210;2023-03-21T05:16:44;7.10;99.90
56308;DHT22;42217;50.422;7.210;2023-03-21T05:19:13;7.20;99.90
56308;DHT22;42217;50.422;7.210;2023-03-21T05:21:40;7.20;99.90
56308;DHT22;42217;50.422;7.210;2023-03-21T05:24:12;7.30;99.90
56308;DHT22;42217;50.422;7.210;2023-03-21T05:26:39;7.20;99.90
56308;DHT22;42217;50.422;7.210;2023-03-21T05:29:06;7.30;99.90
56308;DHT22;42217;50.422;7.210;2023-03-21T05:31:32;7.30;99.90
56308;DHT22;42217;50.422;7.210;2023-03-21T05:33:58;7.30;99.90
56308;DHT22;42217;50.422;7.210;2023-03-21T05:36:23;7.30;99.90
56308;DHT22;42217;50.422;7.210;2023-03-21T05:38:49;7.30;99.90
56308;DHT22;42217;50.422;7.210;2023-03-21T05:41:16;7.40;99.90
56308;DHT22;42217;50.422;7.210;2023-03-21T05:43:42;7.40;99.90
56308;DHT22;42217;50.422;7.210;2023-03-21T05:46:09;7.40;99.90
56308;DHT22;42217;50.422;7.210;2023-03-21T05:48:35;7.40;99.90
56308;DHT22;42217;50.422;7.210;2023-03-21T05:51:01;7.50;99.90
56308;DHT22;42217;50.422;7.210;2023-03-21T05:53:27;7.40;99.90
56308;DHT22;42217;50.422;7.210;2023-03-21T05:55:53;7.50;99.90
56308;DHT22;42217;50.422;7.210;2023-03-21T05:58:18;7.50;99.90
56308;DHT22;42217;50.422;7.210;2023-03-21T06:00:44;7.50;99.90
56308;DHT22;42217;50.422;7.210;2023-03-21T06:03:10;7.60;99.90
56308;DHT22;42217;50.422;7.210;2023-03-21T06:05:36;7.60;99.90
56308;DHT22;42217;50.422;7.210;2023-03-21T06:08:01;7.60;99.90
56308;DHT22;42217;50.422;7.210;2023-03-21T06:10:27;7.70;99.90
56308;DHT22;42217;50.422;7.210;2023-03-21T06:12:53;7.70;99.90
56308;DHT22;42217;50.422;7.210;2023-03-21T06:15:19;7.70;99.90
56308;DHT22;42217;50.422;7.210;2023-03-21T06:17:44;7.70;99.90
56308;DHT22;42217;50.422;7.210;2023-03-21T06:20:10;7.80;99.90
56308;DHT22;42217;50.422;7.210;2023-03-21T06:22:36;7.80;99.90
56308;DHT22;42217;50.422;7.210;2023-03-21T06:25:03;7.90;99.90
56308;DHT22;42217;50.422;7.210;2023-03-21T06:27:29;7.90;99.90
56308;DHT22;42217;50.422;7.210;2023-03-21T06:29:55;7.90;99.90
56308;DHT22;42217;50.422;7.210;2023-03-21T06:32:22;8.00;99.90
56308;DHT22;42217;50.422;7.210;2023-03-21T06:34:48;8.00;99.90
56308;DHT22;42217;50.422;7.210;2023-03-21T06:37:14;8.00;99.90
56308;DHT22;42217;50.422;7.210;2023-03-21T06:39:39;8.10;99.90
56308;DHT22;42217;50.422;7.210;2023-03-21T06:42:05;8.10;99.90
56308;DHT22;42217;50.422;7.210;2023-03-21T06:44:31;8.10;99.90
56308;DHT22;42217;50.422;7.210;2023-03-21T06:46:56;8.10;99.90
56308;DHT22;42217;50.422;7.210;2023-03-21T06:49:22;8.10;99.90
56308;DHT22;42217;50.422;7.210;2023-03-21T06:51:48;8.10;99.90
56308;DHT22;42217;50.422;7.210;2023-03-21T06:54:14;8.20;99.90
56308;DHT22;42217;50.422;7.210;2023-03-21T06:56:42;8.20;99.90
56308;DHT22;42217;50.422;7.210;2023-03-21T06:59:07;8.20;99.90
56308;DHT22;42217;50.422;7.210;2023-03-21T07:01:33;8.20;99.90
56308;DHT22;42217;50.422;7.210;2023-03-21T07:04:00;8.20;99.90
56308;DHT22;42217;50.422;7.210;2023-03-21T07:06:27;8.30;99.90
56308;DHT22;42217;50.422;7.210;2023-03-21T07:08:53;8.40;99.90
56308;DHT22;42217;50.422;7.210;2023-03-21T07:11:20;8.40;99.90
56308;DHT22;42217;50.422;7.210;2023-03-21T07:13:46;8.40;99.90
56308;DHT22;42217;50.422;7.210;2023-03-21T07:16:13;8.40;99.90
56308;DHT22;42217;50.422;7.210;2023-03-21T07:18:40;8.50;99.90
56308;DHT22;42217;50.422;7.210;2023-03-21T07:21:06;8.50;99.90
56308;DHT22;42217;50.422;7.210;2023-03-21T07:23:32;8.40;99.90
56308;DHT22;42217;50.422;7.210;2023-03-21T07:25:59;8.50;99.90
56308;DHT22;42217;50.422;7.210;2023-03-21T07:28:26;8.50;99.90
56308;DHT22;42217;50.422;7.210;2023-03-21T07:30:59;8.40;99.90
56308;DHT22;42217;50.422;7.210;2023-03-21T07:33:26;8.50;99.90
56308;DHT22;42217;50.422;7.210;2023-03-21T07:35:53;8.50;99.90
56308;DHT22;42217;50.422;7.210;2023-03-21T07:38:20;8.40;99.90
56308;DHT22;42217;50.422;7.210;2023-03-21T07:40:47;8.40;99.90
56308;DHT22;42217;50.422;7.210;2023-03-21T07:43:13;8.40;99.90
56308;DHT22;42217;50.422;7.210;2023-03-21T07:45:39;8.30;99.90
56308;DHT22;42217;50.422;7.210;2023-03-21T07:48:07;8.30;99.90
56308;DHT22;42217;50.422;7.210;2023-03-21T07:50:33;8.30;99.90
56308;DHT22;42217;50.422;7.210;2023-03-21T07:52:59;8.30;99.90
56308;DHT22;42217;50.422;7.210;2023-03-21T07:55:25;8.40;99.90
56308;DHT22;42217;50.422;7.210;2023-03-21T07:57:51;8.40;99.90
56308;DHT22;42217;50.422;7.210;2023-03-21T08:00:18;8.40;99.90
56308;DHT22;42217;50.422;7.210;2023-03-21T08:02:52;8.50;99.90
56308;DHT22;42217;50.422;7.210;2023-03-21T08:05:45;8.50;99.90
56308;DHT22;42217;50.422;7.210;2023-03-21T08:08:11;8.50;99.90
56308;DHT22;42217;50.422;7.210;2023-03-21T08:10:36;8.50;99.90
56308;DHT22;42217;50.422;7.210;2023-03-21T08:13:03;8.40;99.90
56308;DHT22;42217;50.422;7.210;2023-03-21T08:15:28;8.40;99.90
56308;DHT22;42217;50.422;7.210;2023-03-21T08:17:54;8.40;99.90
56308;DHT22;42217;50.422;7.210;2023-03-21T08:20:21;8.40;99.90
56308;DHT22;42217;50.422;7.210;2023-03-21T08:22:48;8.40;99.90
56308;DHT22;42217;50.422;7.210;2023-03-21T08:25:15;8.40;99.90
56308;DHT22;42217;50.422;7.210;2023-03-21T08:27:44;8.40;99.90
56308;DHT22;42217;50.422;7.210;2023-03-21T08:30:12;8.60;99.90
56308;DHT22;42217;50.422;7.210;2023-03-21T08:32:39;8.70;99.90
56308;DHT22;42217;50.422;7.210;2023-03-21T08:35:07;8.70;99.90
56308;DHT22;42217;50.422;7.210;2023-03-21T08:37:35;8.70;99.90
56308;DHT22;42217;50.422;7.210;2023-03-21T08:40:02;8.80;99.90
56308;DHT22;42217;50.422;7.210;2023-03-21T08:42:31;8.80;99.90
56308;DHT22;42217;50.422;7.210;2023-03-21T08:44:56;8.80;99.90
56308;DHT22;42217;50.422;7.210;2023-03-21T08:47:22;8.80;99.90
56308;DHT22;42217;50.422;7.210;2023-03-21T08:49:48;8.90;99.90
56308;DHT22;42217;50.422;7.210;2023-03-21T08:52:13;8.90;99.90
56308;DHT22;42217;50.422;7.210;2023-03-21T08:54:39;9.00;99.90
56308;DHT22;42217;50.422;7.210;2023-03-21T08:57:07;9.00;99.90
56308;DHT22;42217;50.422;7.210;2023-03-21T08:59:33;9.00;99.90
56308;DHT22;42217;50.422;7.210;2023-03-21T09:01:59;9.00;99.90
56308;DHT22;42217;50.422;7.210;2023-03-21T09:04:25;9.10;99.90
56308;DHT22;42217;50.422;7.210;2023-03-21T09:06:51;9.20;99.90
56308;DHT22;42217;50.422;7.210;2023-03-21T09:09:17;9.10;99.90
56308;DHT22;42217;50.422;7.210;2023-03-21T09:11:43;9.10;99.90
56308;DHT22;42217;50.422;7.210;2023-03-21T09:14:09;8.90;99.90
56308;DHT22;42217;50.422;7.210;2023-03-21T09:16:36;8.90;99.90
56308;DHT22;42217;50.422;7.210;2023-03-21T09:19:01;9.00;99.90
56308;DHT22;42217;50.422;7.210;2023-03-21T09:21:29;9.00;99.90
56308;DHT22;42217;50.422;7.210;2023-03-21T09:23:55;9.00;99.90
56308;DHT22;42217;50.422;7.210;2023-03-21T09:26:23;9.00;99.90
56308;DHT22;42217;50.422;7.210;2023-03-21T09:28:49;8.90;99.90
56308;DHT22;42217;50.422;7.210;2023-03-21T09:31:16;8.90;99.90
56308;DHT22;42217;50.422;7.210;2023-03-21T09:33:51;9.00;99.90
56308;DHT22;42217;50.422;7.210;2023-03-21T09:36:17;9.10;99.90
56308;DHT22;42217;50.422;7.210;2023-03-21T09:38:45;9.10;99.90
56308;DHT22;42217;50.422;7.210;2023-03-21T09:49:24;9.30;99.90
56308;DHT22;42217;50.422;7.210;2023-03-21T09:51:58;9.40;99.90
56308;DHT22;42217;50.422;7.210;2023-03-21T09:54:32;9.30;99.90
56308;DHT22;42217;50.422;7.210;2023-03-21T09:59:47;9.50;99.90
56308;DHT22;42217;50.422;7.210;2023-03-21T10:05:00;9.60;99.90
56308;DHT22;42217;50.422;7.210;2023-03-21T10:07:28;9.90;99.90
56308;DHT22;42217;50.422;7.210;2023-03-21T10:09:58;10.00;99.90
56308;DHT22;42217;50.422;7.210;2023-03-21T10:12:25;10.20;99.90
56308;DHT22;42217;50.422;7.210;2023-03-21T10:14:56;10.40;99.90
56308;DHT22;42217;50.422;7.210;2023-03-21T10:17:31;10.50;99.90
56308;DHT22;42217;50.422;7.210;2023-03-21T10:20:15;10.50;99.90
56308;DHT22;42217;50.422;7.210;2023-03-21T10:22:43;10.70;99.90
56308;DHT22;42217;50.422;7.210;2023-03-21T10:25:15;10.60;99.90
56308;DHT22;42217;50.422;7.210;2023-03-21T10:27:42;10.40;99.90
56308;DHT22;42217;50.422;7.210;2023-03-21T10:30:10;10.20;99.90
56308;DHT22;42217;50.422;7.210;2023-03-21T10:32:43;10.00;99.90
56308;DHT22;42217;50.422;7.210;2023-03-21T10:35:12;10.00;99.90
56308;DHT22;42217;50.422;7.210;2023-03-21T10:37:38;10.00;99.90
56308;DHT22;42217;50.422;7.210;2023-03-21T10:40:04;10.20;99.90
56308;DHT22;42217;50.422;7.210;2023-03-21T10:42:33;10.20;99.90
56308;DHT22;42217;50.422;7.210;2023-03-21T10:45:00;10.20;99.90
56308;DHT22;42217;50.422;7.210;2023-03-21T10:47:31;10.10;99.90
56308;DHT22;42217;50.422;7.210;2023-03-21T10:50:05;9.90;99.90
56308;DHT22;42217;50.422;7.210;2023-03-21T10:52:32;9.80;99.90
56308;DHT22;42217;50.422;7.210;2023-03-21T10:57:45;9.90;99.90
56308;DHT22;42217;50.422;7.210;2023-03-21T11:00:18;10.00;99.90
56308;DHT22;42217;50.422;7.210;2023-03-21T11:02:50;9.90;99.90
56308;DHT22;42217;50.422;7.210;2023-03-21T11:08:09;10.10;99.90
56308;DHT22;42217;50.422;7.210;2023-03-21T11:13:40;10.20;99.90
56308;DHT22;42217;50.422;7.210;2023-03-21T11:16:10;10.20;99.90
56308;DHT22;42217;50.422;7.210;2023-03-21T11:18:41;10.10;99.90
56308;DHT22;42217;50.422;7.210;2023-03-21T11:21:10;9.90;99.90
56308;DHT22;42217;50.422;7.210;2023-03-21T11:23:45;10.00;99.90
56308;DHT22;42217;50.422;7.210;2023-03-21T11:26:26;9.90;99.90
56308;DHT22;42217;50.422;7.210;2023-03-21T11:28:55;9.90;99.90
56308;DHT22;42217;50.422;7.210;2023-03-21T11:31:22;10.00;99.90
56308;DHT22;42217;50.422;7.210;2023-03-21T11:33:54;10.00;99.90
56308;DHT22;42217;50.422;7.210;2023-03-21T11:36:30;10.00;99.90
56308;DHT22;42217;50.422;7.210;2023-03-21T11:39:14;10.00;99.90
56308;DHT22;42217;50.422;7.210;2023-03-21T11:41:41;10.00;99.90
56308;DHT22;42217;50.422;7.210;2023-03-21T11:44:42;10.00;99.90
56308;DHT22;42217;50.422;7.210;2023-03-21T11:47:09;10.00;99.90
56308;DHT22;42217;50.422;7.210;2023-03-21T11:49:35;10.00;99.90
56308;DHT22;42217;50.422;7.210;2023-03-21T11:52:22;10.00;99.90
56308;DHT22;42217;50.422;7.210;2023-03-21T12:05:26;9.90;99.90
56308;DHT22;42217;50.422;7.210;2023-03-21T12:08:01;10.00;99.90
56308;DHT22;42217;50.422;7.210;2023-03-21T12:13:38;10.20;99.90
56308;DHT22;42217;50.422;7.210;2023-03-21T12:16:24;10.20;99.90
56308;DHT22;42217;50.422;7.210;2023-03-21T12:24:59;10.20;99.90
56308;DHT22;42217;50.422;7.210;2023-03-21T12:35:26;10.40;99.90
56308;DHT22;42217;50.422;7.210;2023-03-21T12:38:15;10.50;99.90
56308;DHT22;42217;50.422;7.210;2023-03-21T12:41:04;10.50;99.90
56308;DHT22;42217;50.422;7.210;2023-03-21T12:44:03;10.40;99.90
56308;DHT22;42217;50.422;7.210;2023-03-21T12:51:50;10.30;99.90
56308;DHT22;42217;50.422;7.210;2023-03-21T13:01:55;10.70;99.90
56308;DHT22;42217;50.422;7.210;2023-03-21T13:07:09;10.80;99.90
56308;DHT22;42217;50.422;7.210;2023-03-21T13:09:39;10.90;99.90
56308;DHT22;42217;50.422;7.210;2023-03-21T13:12:40;10.90;99.90
56308;DHT22;42217;50.422;7.210;2023-03-21T13:18:19;11.20;99.90
56308;DHT22;42217;50.422;7.210;2023-03-21T13:23:10;11.20;99.90
56308;DHT22;42217;50.422;7.210;2023-03-21T13:25:46;11.40;99.90
56308;DHT22;42217;50.422;7.210;2023-03-21T13:28:34;11.70;99.90
56308;DHT22;42217;50.422;7.210;2023-03-21T13:31:25;12.00;99.90
56308;DHT22;42217;50.422;7.210;2023-03-21T13:33:53;12.30;99.90
56308;DHT22;42217;50.422;7.210;2023-03-21T13:36:28;12.60;99.90
56308;DHT22;42217;50.422;7.210;2023-03-21T13:38:59;12.80;99.90
56308;DHT22;42217;50.422;7.210;2023-03-21T13:41:37;12.90;99.90
56308;DHT22;42217;50.422;7.210;2023-03-21T13:49:01;13.20;99.90
56308;DHT22;42217;50.422;7.210;2023-03-21T14:02:54;12.50;99.90
56308;DHT22;42217;50.422;7.210;2023-03-21T14:05:23;12.30;99.90
56308;DHT22;42217;50.422;7.210;2023-03-21T14:07:54;12.20;99.90
56308;DHT22;42217;50.422;7.210;2023-03-21T14:10:37;12.30;99.90
56308;DHT22;42217;50.422;7.210;2023-03-21T14:13:05;12.30;99.90
56308;DHT22;42217;50.422;7.210;2023-03-21T14:15:42;12.30;99.90
56308;DHT22;42217;50.422;7.210;2023-03-21T14:18:14;12.20;99.90
56308;DHT22;42217;50.422;7.210;2023-03-21T14:20:40;12.20;99.90
56308;DHT22;42217;50.422;7.210;2023-03-21T14:23:15;12.20;99.90
56308;DHT22;42217;50.422;7.210;2023-03-21T14:25:43;12.10;99.90
56308;DHT22;42217;50.422;7.210;2023-03-21T14:28:17;12.10;99.90
56308;DHT22;42217;50.422;7.210;2023-03-21T14:30:44;12.10;99.90
56308;DHT22;42217;50.422;7.210;2023-03-21T14:33:31;12.10;99.90
56308;DHT22;42217;50.422;7.210;2023-03-21T14:35:58;12.10;99.90
56308;DHT22;42217;50.422;7.210;2023-03-21T14:38:33;12.30;99.90
56308;DHT22;42217;50.422;7.210;2023-03-21T14:40:59;12.30;99.90
56308;DHT22;42217;50.422;7.210;2023-03-21T14:43:26;12.30;99.90
56308;DHT22;42217;50.422;7.210;2023-03-21T14:45:54;12.30;99.90
56308;DHT22;42217;50.422;7.210;2023-03-21T14:48:33;12.00;99.90
56308;DHT22;42217;50.422;7.210;2023-03-21T14:51:08;11.90;99.90
56308;DHT22;42217;50.422;7.210;2023-03-21T14:53:37;11.80;99.90
56308;DHT22;42217;50.422;7.210;2023-03-21T14:56:18;11.70;99.90
56308;DHT22;42217;50.422;7.210;2023-03-21T14:58:47;11.60;99.90
56308;DHT22;42217;50.422;7.210;2023-03-21T15:01:25;11.60;99.90
56308;DHT22;42217;50.422;7.210;2023-03-21T15:03:52;11.60;99.90
56308;DHT22;42217;50.422;7.210;2023-03-21T15:06:18;11.60;99.90
56308;DHT22;42217;50.422;7.210;2023-03-21T15:09:02;11.60;99.90
56308;DHT22;42217;50.422;7.210;2023-03-21T15:11:34;11.60;99.90
56308;DHT22;42217;50.422;7.210;2023-03-21T15:14:04;11.80;99.90
56308;DHT22;42217;50.422;7.210;2023-03-21T15:16:31;12.00;99.90
56308;DHT22;42217;50.422;7.210;2023-03-21T15:18:58;12.00;99.90
56308;DHT22;42217;50.422;7.210;2023-03-21T15:21:34;12.20;99.90
56308;DHT22;42217;50.422;7.210;2023-03-21T15:24:08;12.50;99.90
56308;DHT22;42217;50.422;7.210;2023-03-21T15:26:39;12.70;99.90
56308;DHT22;42217;50.422;7.210;2023-03-21T15:29:08;13.20;99.90
56308;DHT22;42217;50.422;7.210;2023-03-21T15:31:36;13.30;99.90
56308;DHT22;42217;50.422;7.210;2023-03-21T15:34:03;13.70;99.90
56308;DHT22;42217;50.422;7.210;2023-03-21T15:36:43;13.80;98.50
56308;DHT22;42217;50.422;7.210;2023-03-21T15:39:13;13.70;97.20
56308;DHT22;42217;50.422;7.210;2023-03-21T15:41:40;13.90;93.70
56308;DHT22;42217;50.422;7.210;2023-03-21T15:46:39;14.30;94.00
56308;DHT22;42217;50.422;7.210;2023-03-21T15:51:37;14.10;87.80
56308;DHT22;42217;50.422;7.210;2023-03-21T15:54:12;13.50;95.00
56308;DHT22;42217;50.422;7.210;2023-03-21T15:56:40;13.20;99.10
56308;DHT22;42217;50.422;7.210;2023-03-21T15:59:14;13.20;99.80
56308;DHT22;42217;50.422;7.210;2023-03-21T16:01:48;13.10;99.90
56308;DHT22;42217;50.422;7.210;2023-03-21T16:04:14;13.10;99.90
56308;DHT22;42217;50.422;7.210;2023-03-21T16:07:12;13.00;99.90
56308;DHT22;42217;50.422;7.210;2023-03-21T16:09:45;13.00;99.90
56308;DHT22;42217;50.422;7.210;2023-03-21T16:12:13;13.00;99.30
56308;DHT22;42217;50.422;7.210;2023-03-21T16:14:39;12.80;99.90
56308;DHT22;42217;50.422;7.210;2023-03-21T16:17:26;12.70;99.90
56308;DHT22;42217;50.422;7.210;2023-03-21T16:19:53;12.80;99.90
56308;DHT22;42217;50.422;7.210;2023-03-21T16:22:19;13.50;95.20
56308;DHT22;42217;50.422;7.210;2023-03-21T16:24:46;14.50;80.20
56308;DHT22;42217;50.422;7.210;2023-03-21T16:27:19;15.50;70.00
56308;DHT22;42217;50.422;7.210;2023-03-21T16:29:45;15.90;44.00
56308;DHT22;42217;50.422;7.210;2023-03-21T16:32:15;15.00;37.00
56308;DHT22;42217;50.422;7.210;2023-03-21T16:34:42;13.80;73.60
56308;DHT22;42217;50.422;7.210;2023-03-21T16:37:10;13.50;87.20
56308;DHT22;42217;50.422;7.210;2023-03-21T16:39:36;13.10;86.30
56308;DHT22;42217;50.422;7.210;2023-03-21T16:42:02;12.70;95.20
56308;DHT22;42217;50.422;7.210;2023-03-21T16:44:27;13.10;94.40
56308;DHT22;42217;50.422;7.210;2023-03-21T16:46:53;13.00;83.20
56308;DHT22;42217;50.422;7.210;2023-03-21T16:49:22;12.70;92.10
56308;DHT22;42217;50.422;7.210;2023-03-21T16:51:49;12.70;89.50
56308;DHT22;42217;50.422;7.210;2023-03-21T16:54:16;13.10;77.70
56308;DHT22;42217;50.422;7.210;2023-03-21T16:56:52;13.20;76.80
56308;DHT22;42217;50.422;7.210;2023-03-21T16:59:18;12.70;83.60
56308;DHT22;42217;50.422;7.210;2023-03-21T17:01:44;12.20;97.90
56308;DHT22;42217;50.422;7.210;2023-03-21T17:04:13;11.80;99.90
56308;DHT22;42217;50.422;7.210;2023-03-21T17:09:11;11.50;99.90
56308;DHT22;42217;50.422;7.210;2023-03-21T17:11:37;11.40;99.90
56308;DHT22;42217;50.422;7.210;2023-03-21T17:14:07;11.20;99.90
56308;DHT22;42217;50.422;7.210;2023-03-21T17:16:33;11.10;99.90
56308;DHT22;42217;50.422;7.210;2023-03-21T17:18:59;11.00;99.90
56308;DHT22;42217;50.422;7.210;2023-03-21T17:21:27;10.90;99.90
56308;DHT22;42217;50.422;7.210;2023-03-21T17:23:53;10.90;99.90
56308;DHT22;42217;50.422;7.210;2023-03-21T17:26:28;10.80;99.90
56308;DHT22;42217;50.422;7.210;2023-03-21T17:28:54;10.70;99.90
56308;DHT22;42217;50.422;7.210;2023-03-21T17:31:25;10.60;99.90
56308;DHT22;42217;50.422;7.210;2023-03-21T17:33:51;10.50;99.90
56308;DHT22;42217;50.422;7.210;2023-03-21T17:36:18;10.40;99.90
56308;DHT22;42217;50.422;7.210;2023-03-21T17:38:45;10.50;99.90
56308;DHT22;42217;50.422;7.210;2023-03-21T17:41:13;10.40;99.90
56308;DHT22;42217;50.422;7.210;2023-03-21T17:43:39;10.40;99.90
56308;DHT22;42217;50.422;7.210;2023-03-21T17:46:05;10.30;99.90
56308;DHT22;42217;50.422;7.210;2023-03-21T17:48:35;10.10;99.90
56308;DHT22;42217;50.422;7.210;2023-03-21T17:51:01;10.00;99.90
56308;DHT22;42217;50.422;7.210;2023-03-21T17:53:26;10.00;99.90
56308;DHT22;42217;50.422;7.210;2023-03-21T17:55:52;10.10;99.90
56308;DHT22;42217;50.422;7.210;2023-03-21T17:58:18;10.00;99.90
56308;DHT22;42217;50.422;7.210;2023-03-21T18:00:44;10.10;99.90
56308;DHT22;42217;50.422;7.210;2023-03-21T18:03:11;10.00;99.90
56308;DHT22;42217;50.422;7.210;2023-03-21T18:05:38;10.00;99.90
56308;DHT22;42217;50.422;7.210;2023-03-21T18:08:04;9.80;99.90
56308;DHT22;42217;50.422;7.210;2023-03-21T18:10:30;9.70;99.90
56308;DHT22;42217;50.422;7.210;2023-03-21T18:12:56;9.60;99.90
56308;DHT22;42217;50.422;7.210;2023-03-21T18:15:23;9.70;99.90
56308;DHT22;42217;50.422;7.210;2023-03-21T18:17:51;9.70;99.90